sensor_id;sensor_type;location;lat;lon;timestamp;pressure;altitude;pressure_sealevel;temperature;humidity
12178;BME280;6152;48.728;9.256;2023-08-07T00:01:01;96912.47;;;10.82;100.00
12178;BME280;6152;48.728;9.256;2023-08-07T00:03:27;96920.25;;;10.82;100.00
12178;BME280;6152;48.728;9.256;2023-08-07T00:05:54;96914.94;;;10.83;100.00
12178;BME280;6152;48.728;9.256;2023-08-07T00:08:21;96919.72;;;10.77;100.00
12178;BME280;6152;48.728;9.256;2023-08-07T00:10:47;96925.84;;;10.76;100.00
12178;BME280;6152;48.728;9.256;2023-08-07T00:13:14;96922.88;;;10.82;100.00
12178;BME280;6152;48.728;9.256;2023-08-07T00:15:40;96926.47;;;10.79;100.00
12178;BME280;6152;48.728;9.256;2023-08-07T00:18:06;96928.44;;;10.76;100.00
12178;BME280;6152;48.728;9.256;2023-08-07T00:20:32;96928.44;;;10.76;100.00
12178;BME280;6152;48.728;9.256;2023-08-07T00:22:58;96928.44;;;10.76;100.00
12178;BME280;6152;48.728;9.256;2023-08-07T00:25:25;96945.94;;;10.74;100.00
12178;BME280;6152;48.728;9.256;2023-08-07T00:27:51;96937.41;;;10.72;100.00
12178;BME280;6152;48.728;9.256;2023-08-07T00:30:17;96944.69;;;10.79;100.00
12178;BME280;6152;48.728;9.256;2023-08-07T00:32:43;96946.38;;;10.80;100.00
12178;BME280;6152;48.728;9.256;2023-08-07T00:35:09;96942.22;;;10.78;100.00
12178;BME280;6152;48.728;9.256;2023-08-07T00:37:35;96952.44;;;10.81;100.00
12178;BME280;6152;48.728;9.256;2023-08-07T00:40:01;96939.75;;;10.89;100.00
12178;BME280;6152;48.728;9.256;2023-08-07T00:42:28;96948.50;;;10.88;100.00
12178;BME280;6152;48.728;9.256;2023-08-07T00:44:54;96946.53;;;10.91;100.00
12178;BME280;6152;48.728;9.256;2023-08-07T00:47:20;96948.09;;;10.94;100.00
12178;BME280;6152;48.728;9.256;2023-08-07T00:49:47;96939.16;;;10.98;100.00
12178;BME280;6152;48.728;9.256;2023-08-07T00:52:13;96939.88;;;11.00;100.00
12178;BME280;6152;48.728;9.256;2023-08-07T00:54:40;96951.69;;;11.05;100.00
12178;BME280;6152;48.728;9.256;2023-08-07T00:57:16;96954.16;;;11.07;100.00
12178;BME280;6152;48.728;9.256;2023-08-07T00:59:43;96949.59;;;11.10;100.00
12178;BME280;6152;48.728;9.256;2023-08-07T01:02:10;96953.78;;;11.13;100.00
12178;BME280;6152;48.728;9.256;2023-08-07T01:04:36;96956.00;;;11.19;100.00
12178;BME280;6152;48.728;9.256;2023-08-07T01:07:05;96960.28;;;11.20;100.00
12178;BME280;6152;48.728;9.256;2023-08-07T01:09:32;96955.88;;;11.21;100.00
12178;BME280;6152;48.728;9.256;2023-08-07T01:12:21;96954.88;;;11.23;100.00
12178;BME280;6152;48.728;9.256;2023-08-07T01:17:22;96962.69;;;11.23;100.00
12178;BME280;6152;48.728;9.256;2023-08-07T01:19:51;96961.94;;;11.21;100.00
12178;BME280;6152;48.728;9.256;2023-08-07T01:22:18;96966.94;;;11.24;100.00
12178;BME280;6152;48.728;9.256;2023-08-07T01:24:47;96967.69;;;11.26;100.00
12178;BME280;6152;48.728;9.256;2023-08-07T01:30:10;96969.34;;;11.27;100.00
12178;BME280;6152;48.728;9.256;2023-08-07T01:35:15;96974.03;;;11.22;100.00
12178;BME280;6152;48.728;9.256;2023-08-07T01:37:43;96967.47;;;11.29;100.00
12178;BME280;6152;48.728;9.256;2023-08-07T01:40:12;96965.06;;;11.26;100.00
12178;BME280;6152;48.728;9.256;2023-08-07T01:42:39;96968.59;;;11.25;100.00
12178;BME280;6152;48.728;9.256;2023-08-07T01:45:06;96957.97;;;11.28;100.00
12178;BME280;6152;48.728;9.256;2023-08-07T01:47:32;96967.88;;;11.23;100.00
12178;BME280;6152;48.728;9.256;2023-08-07T01:49:58;96964.44;;;11.23;100.00
12178;BME280;6152;48.728;9.256;2023-08-07T01:52:24;96957.13;;;11.15;100.00
12178;BME280;6152;48.728;9.256;2023-08-07T01:54:50;96965.06;;;11.13;100.00
12178;BME280;6152;48.728;9.256;2023-08-07T01:57:16;96965.06;;;11.13;100.00
12178;BME280;6152;48.728;9.256;2023-08-07T01:59:42;96967.75;;;11.12;100.00
12178;BME280;6152;48.728;9.256;2023-08-07T02:02:09;96969.22;;;11.16;100.00
12178;BME280;6152;48.728;9.256;2023-08-07T02:04:35;96971.63;;;11.19;100.00
12178;BME280;6152;48.728;9.256;2023-08-07T02:07:01;96966.94;;;11.24;100.00
12178;BME280;6152;48.728;9.256;2023-08-07T02:09:27;96967.13;;;11.21;100.00
12178;BME280;6152;48.728;9.256;2023-08-07T02:11:54;96960.06;;;11.23;100.00
12178;BME280;6152;48.728;9.256;2023-08-07T02:14:20;96970.50;;;11.23;100.00
12178;BME280;6152;48.728;9.256;2023-08-07T02:16:46;96965.81;;;11.28;100.00
12178;BME280;6152;48.728;9.256;2023-08-07T02:19:12;96968.59;;;11.25;100.00
12178;BME280;6152;48.728;9.256;2023-08-07T02:21:38;96967.38;;;11.31;100.00
12178;BME280;6152;48.728;9.256;2023-08-07T02:24:04;96973.63;;;11.28;100.00
12178;BME280;6152;48.728;9.256;2023-08-07T02:26:31;96970.09;;;11.29;100.00
12178;BME280;6152;48.728;9.256;2023-08-07T02:28:57;96973.19;;;11.34;100.00
12178;BME280;6152;48.728;9.256;2023-08-07T02:31:23;96971.56;;;11.33;100.00
12178;BME280;6152;48.728;9.256;2023-08-07T02:33:49;96983.63;;;11.34;100.00
12178;BME280;6152;48.728;9.256;2023-08-07T02:36:15;96983.53;;;11.36;100.00
12178;BME280;6152;48.728;9.256;2023-08-07T02:38:41;96977.50;;;11.35;100.00
12178;BME280;6152;48.728;9.256;2023-08-07T02:41:07;96980.94;;;11.36;100.00
12178;BME280;6152;48.728;9.256;2023-08-07T02:43:34;96983.09;;;11.29;100.00
12178;BME280;6152;48.728;9.256;2023-08-07T02:46:00;96982.91;;;11.32;100.00
12178;BME280;6152;48.728;9.256;2023-08-07T02:48:26;96987.28;;;11.32;100.00
12178;BME280;6152;48.728;9.256;2023-08-07T02:50:52;96980.00;;;11.37;100.00
12178;BME280;6152;48.728;9.256;2023-08-07T02:53:19;96985.50;;;11.32;100.00
12178;BME280;6152;48.728;9.256;2023-08-07T02:55:45;96995.69;;;11.23;100.00
12178;BME280;6152;48.728;9.256;2023-08-07T02:58:11;96974.03;;;11.22;100.00
12178;BME280;6152;48.728;9.256;2023-08-07T03:00:37;96987.59;;;11.27;100.00
12178;BME280;6152;48.728;9.256;2023-08-07T03:03:03;96977.34;;;11.24;100.00
12178;BME280;6152;48.728;9.256;2023-08-07T03:05:29;96988.19;;;11.18;100.00
12178;BME280;6152;48.728;9.256;2023-08-07T03:07:55;96989.44;;;11.25;100.00
12178;BME280;6152;48.728;9.256;2023-08-07T03:10:22;96977.66;;;11.20;100.00
12178;BME280;6152;48.728;9.256;2023-08-07T03:12:48;96991.81;;;11.15;100.00
12178;BME280;6152;48.728;9.256;2023-08-07T03:15:14;97002.13;;;11.17;100.00
12178;BME280;6152;48.728;9.256;2023-08-07T03:17:40;96997.75;;;11.18;100.00
12178;BME280;6152;48.728;9.256;2023-08-07T03:20:06;97006.81;;;11.12;100.00
12178;BME280;6152;48.728;9.256;2023-08-07T03:22:33;97013.44;;;11.03;100.00
12178;BME280;6152;48.728;9.256;2023-08-07T03:24:59;97017.47;;;10.95;100.00
12178;BME280;6152;48.728;9.256;2023-08-07T03:27:25;97011.22;;;10.97;100.00
12178;BME280;6152;48.728;9.256;2023-08-07T03:29:51;97008.72;;;10.96;100.00
12178;BME280;6152;48.728;9.256;2023-08-07T03:32:18;97010.91;;;10.89;100.00
12178;BME280;6152;48.728;9.256;2023-08-07T03:34:44;97010.97;;;10.88;100.00
12178;BME280;6152;48.728;9.256;2023-08-07T03:37:10;96999.53;;;10.90;100.00
12178;BME280;6152;48.728;9.256;2023-08-07T03:39:36;97006.41;;;10.91;100.00
12178;BME280;6152;48.728;9.256;2023-08-07T03:42:02;97000.13;;;10.81;100.00
12178;BME280;6152;48.728;9.256;2023-08-07T03:44:28;97002.81;;;10.80;100.00
12178;BME280;6152;48.728;9.256;2023-08-07T03:46:54;96999.28;;;10.81;100.00
12178;BME280;6152;48.728;9.256;2023-08-07T03:49:22;97000.19;;;10.80;100.00
12178;BME280;6152;48.728;9.256;2023-08-07T03:51:49;97000.13;;;10.81;100.00
12178;BME280;6152;48.728;9.256;2023-08-07T03:54:15;97002.63;;;10.83;100.00
12178;BME280;6152;48.728;9.256;2023-08-07T03:56:41;96999.28;;;10.81;100.00
12178;BME280;6152;48.728;9.256;2023-08-07T03:59:07;97008.78;;;10.82;100.00
12178;BME280;6152;48.728;9.256;2023-08-07T04:01:33;97004.09;;;10.87;100.00
12178;BME280;6152;48.728;9.256;2023-08-07T04:03:59;97008.56;;;10.85;100.00
12178;BME280;6152;48.728;9.256;2023-08-07T04:06:25;97014.69;;;10.84;100.00
12178;BME280;6152;48.728;9.256;2023-08-07T04:08:52;97007.66;;;10.86;100.00
12178;BME280;6152;48.728;9.256;2023-08-07T04:11:19;97012.94;;;10.84;100.00
12178;BME280;6152;48.728;9.256;2023-08-07T04:13:45;97005.97;;;10.85;100.00
12178;BME280;6152;48.728;9.256;2023-08-07T04:16:11;97014.69;;;10.84;100.00
12178;BME280;6152;48.728;9.256;2023-08-07T04:18:37;97016.84;;;10.77;100.00
12178;BME280;6152;48.728;9.256;2023-08-07T04:21:03;97017.97;;;10.73;100.00
12178;BME280;6152;48.728;9.256;2023-08-07T04:23:29;97018.16;;;10.70;100.00
12178;BME280;6152;48.728;9.256;2023-08-07T04:25:57;97021.69;;;10.69;100.00
12178;BME280;6152;48.728;9.256;2023-08-07T04:28:24;97023.50;;;10.69;100.00
12178;BME280;6152;48.728;9.256;2023-08-07T04:30:51;97025.44;;;10.65;100.00
12178;BME280;6152;48.728;9.256;2023-08-07T04:33:18;97025.53;;;10.63;100.00
12178;BME280;6152;48.728;9.256;2023-08-07T04:35:44;97027.28;;;10.63;100.00
12178;BME280;6152;48.728;9.256;2023-08-07T04:38:11;97033.53;;;10.60;100.00
12178;BME280;6152;48.728;9.256;2023-08-07T04:40:37;97028.31;;;10.60;100.00
12178;BME280;6152;48.728;9.256;2023-08-07T04:43:03;97035.03;;;10.64;100.00
12178;BME280;6152;48.728;9.256;2023-08-07T04:45:29;97035.03;;;10.64;100.00
12178;BME280;6152;48.728;9.256;2023-08-07T04:47:56;97034.81;;;10.68;100.00
12178;BME280;6152;48.728;9.256;2023-08-07T04:50:22;97045.97;;;10.70;100.00
12178;BME280;6152;48.728;9.256;2023-08-07T04:52:48;97041.50;;;10.72;100.00
12178;BME280;6152;48.728;9.256;2023-08-07T04:55:14;97047.19;;;10.78;100.00
12178;BME280;6152;48.728;9.256;2023-08-07T04:57:40;97041.13;;;10.78;100.00
12178;BME280;6152;48.728;9.256;2023-08-07T05:00:07;97044.19;;;10.84;100.00
12178;BME280;6152;48.728;9.256;2023-08-07T05:02:34;97041.66;;;10.83;100.00
12178;BME280;6152;48.728;9.256;2023-08-07T05:05:00;97047.63;;;10.85;100.00
12178;BME280;6152;48.728;9.256;2023-08-07T05:07:26;97048.47;;;10.85;100.00
12178;BME280;6152;48.728;9.256;2023-08-07T05:09:52;97039.91;;;10.83;100.00
12178;BME280;6152;48.728;9.256;2023-08-07T05:12:19;97049.38;;;10.84;100.00
12178;BME280;6152;48.728;9.256;2023-08-07T05:14:45;97056.81;;;10.90;100.00
12178;BME280;6152;48.728;9.256;2023-08-07T05:17:11;97033.28;;;10.92;100.00
12178;BME280;6152;48.728;9.256;2023-08-07T05:19:38;97048.06;;;10.91;100.00
12178;BME280;6152;48.728;9.256;2023-08-07T05:22:05;97038.50;;;10.92;100.00
12178;BME280;6152;48.728;9.256;2023-08-07T05:24:31;97036.06;;;11.03;100.00
12178;BME280;6152;48.728;9.256;2023-08-07T05:27:07;97043.13;;;11.01;100.00
12178;BME280;6152;48.728;9.256;2023-08-07T05:29:34;97041.06;;;11.06;100.00
12178;BME280;6152;48.728;9.256;2023-08-07T05:32:01;97046.06;;;11.09;100.00
12178;BME280;6152;48.728;9.256;2023-08-07T05:34:27;97052.56;;;11.16;100.00
12178;BME280;6152;48.728;9.256;2023-08-07T05:36:53;97059.75;;;11.12;100.00
12178;BME280;6152;48.728;9.256;2023-08-07T05:39:20;97066.13;;;11.21;100.00
12178;BME280;6152;48.728;9.256;2023-08-07T05:41:46;97069.47;;;11.23;100.00
12178;BME280;6152;48.728;9.256;2023-08-07T05:44:12;97070.56;;;11.33;100.00
12178;BME280;6152;48.728;9.256;2023-08-07T05:46:38;97073.03;;;11.35;100.00
12178;BME280;6152;48.728;9.256;2023-08-07T05:49:04;97072.22;;;11.34;100.00
12178;BME280;6152;48.728;9.256;2023-08-07T05:51:31;97073.88;;;11.35;100.00
12178;BME280;6152;48.728;9.256;2023-08-07T05:53:57;97086.63;;;11.40;100.00
12178;BME280;6152;48.728;9.256;2023-08-07T05:56:23;97073.31;;;11.44;100.00
12178;BME280;6152;48.728;9.256;2023-08-07T05:58:49;97083.97;;;11.54;100.00
12178;BME280;6152;48.728;9.256;2023-08-07T06:01:15;97084.41;;;11.60;100.00
12178;BME280;6152;48.728;9.256;2023-08-07T06:03:43;97090.91;;;11.68;100.00
12178;BME280;6152;48.728;9.256;2023-08-07T06:06:09;97084.06;;;11.79;100.00
12178;BME280;6152;48.728;9.256;2023-08-07T06:08:35;97093.59;;;11.93;100.00
12178;BME280;6152;48.728;9.256;2023-08-07T06:11:01;97094.34;;;12.07;100.00
12178;BME280;6152;48.728;9.256;2023-08-07T06:13:31;97099.59;;;12.20;100.00
12178;BME280;6152;48.728;9.256;2023-08-07T06:15:57;97109.91;;;12.34;100.00
12178;BME280;6152;48.728;9.256;2023-08-07T06:18:23;97110.53;;;12.38;100.00
12178;BME280;6152;48.728;9.256;2023-08-07T06:20:50;97112.97;;;12.41;100.00
12178;BME280;6152;48.728;9.256;2023-08-07T06:23:16;97119.31;;;12.49;100.00
12178;BME280;6152;48.728;9.256;2023-08-07T06:25:42;97116.28;;;12.55;100.00
12178;BME280;6152;48.728;9.256;2023-08-07T06:28:08;97112.22;;;12.51;100.00
12178;BME280;6152;48.728;9.256;2023-08-07T06:30:35;97110.03;;;12.58;100.00
12178;BME280;6152;48.728;9.256;2023-08-07T06:33:01;97114.53;;;12.69;100.00
12178;BME280;6152;48.728;9.256;2023-08-07T06:35:27;97106.13;;;12.76;100.00
12178;BME280;6152;48.728;9.256;2023-08-07T06:37:53;97114.91;;;12.88;100.00
12178;BME280;6152;48.728;9.256;2023-08-07T06:40:19;97120.44;;;12.96;100.00
12178;BME280;6152;48.728;9.256;2023-08-07T06:42:45;97119.47;;;12.97;100.00
12178;BME280;6152;48.728;9.256;2023-08-07T06:45:11;97114.19;;;12.86;100.00
12178;BME280;6152;48.728;9.256;2023-08-07T06:47:37;97120.13;;;12.88;100.00
12178;BME280;6152;48.728;9.256;2023-08-07T06:50:04;97124.19;;;12.92;100.00
12178;BME280;6152;48.728;9.256;2023-08-07T06:52:30;97114.19;;;12.86;100.00
12178;BME280;6152;48.728;9.256;2023-08-07T06:54:56;97120.00;;;13.02;100.00
12178;BME280;6152;48.728;9.256;2023-08-07T06:57:22;97116.03;;;13.09;100.00
12178;BME280;6152;48.728;9.256;2023-08-07T06:59:48;97118.75;;;13.20;100.00
12178;BME280;6152;48.728;9.256;2023-08-07T07:02:14;97120.25;;;13.35;100.00
12178;BME280;6152;48.728;9.256;2023-08-07T07:04:40;97124.72;;;13.46;100.00
12178;BME280;6152;48.728;9.256;2023-08-07T07:07:07;97114.47;;;13.66;100.00
12178;BME280;6152;48.728;9.256;2023-08-07T07:09:33;97127.63;;;13.78;100.00
12178;BME280;6152;48.728;9.256;2023-08-07T07:11:59;97124.31;;;13.87;100.00
12178;BME280;6152;48.728;9.256;2023-08-07T07:14:25;97115.38;;;14.13;100.00
12178;BME280;6152;48.728;9.256;2023-08-07T07:16:51;97124.59;;;14.30;100.00
12178;BME280;6152;48.728;9.256;2023-08-07T07:19:17;97126.88;;;14.34;100.00
12178;BME280;6152;48.728;9.256;2023-08-07T07:21:44;97128.28;;;14.27;100.00
12178;BME280;6152;48.728;9.256;2023-08-07T07:24:10;97129.94;;;14.28;100.00
12178;BME280;6152;48.728;9.256;2023-08-07T07:26:36;97128.69;;;14.34;100.00
12178;BME280;6152;48.728;9.256;2023-08-07T07:29:02;97133.09;;;14.44;100.00
12178;BME280;6152;48.728;9.256;2023-08-07T07:31:29;97141.31;;;14.62;100.00
12178;BME280;6152;48.728;9.256;2023-08-07T07:33:55;97133.25;;;14.65;100.00
12178;BME280;6152;48.728;9.256;2023-08-07T07:36:21;97121.94;;;14.64;100.00
12178;BME280;6152;48.728;9.256;2023-08-07T07:38:47;97130.97;;;14.60;100.00
12178;BME280;6152;48.728;9.256;2023-08-07T07:41:14;97139.78;;;14.59;100.00
12178;BME280;6152;48.728;9.256;2023-08-07T07:43:41;97136.09;;;14.51;100.00
12178;BME280;6152;48.728;9.256;2023-08-07T07:46:07;97130.03;;;14.50;100.00
12178;BME280;6152;48.728;9.256;2023-08-07T07:48:34;97136.66;;;14.43;100.00
12178;BME280;6152;48.728;9.256;2023-08-07T07:51:01;97129.91;;;14.63;100.00
12178;BME280;6152;48.728;9.256;2023-08-07T07:53:28;97129.09;;;14.85;100.00
12178;BME280;6152;48.728;9.256;2023-08-07T07:55:54;97135.75;;;15.11;100.00
12178;BME280;6152;48.728;9.256;2023-08-07T07:58:21;97150.53;;;15.23;100.00
12178;BME280;6152;48.728;9.256;2023-08-07T08:00:47;97141.00;;;15.33;100.00
12178;BME280;6152;48.728;9.256;2023-08-07T08:03:14;97143.59;;;15.44;100.00
12178;BME280;6152;48.728;9.256;2023-08-07T08:05:40;97148.00;;;15.44;100.00
12178;BME280;6152;48.728;9.256;2023-08-07T08:08:07;97147.41;;;15.40;100.00
12178;BME280;6152;48.728;9.256;2023-08-07T08:10:33;97151.59;;;15.43;100.00
12178;BME280;6152;48.728;9.256;2023-08-07T08:13:00;97159.47;;;15.54;99.67
12178;BME280;6152;48.728;9.256;2023-08-07T08:15:26;97168.19;;;15.54;92.14
12178;BME280;6152;48.728;9.256;2023-08-07T08:17:52;97161.81;;;15.46;93.92
12178;BME280;6152;48.728;9.256;2023-08-07T08:20:18;97169.94;;;15.32;96.43
12178;BME280;6152;48.728;9.256;2023-08-07T08:22:46;97165.09;;;15.16;95.04
12178;BME280;6152;48.728;9.256;2023-08-07T08:25:12;97164.13;;;14.95;94.33
12178;BME280;6152;48.728;9.256;2023-08-07T08:27:39;97169.09;;;14.87;92.75
12178;BME280;6152;48.728;9.256;2023-08-07T08:30:06;97160.53;;;14.85;98.61
12178;BME280;6152;48.728;9.256;2023-08-07T08:32:32;97170.28;;;14.83;95.55
12178;BME280;6152;48.728;9.256;2023-08-07T08:34:59;97167.91;;;14.80;96.88
12178;BME280;6152;48.728;9.256;2023-08-07T08:37:25;97181.16;;;14.78;97.61
12178;BME280;6152;48.728;9.256;2023-08-07T08:39:51;97158.16;;;14.82;96.03
12178;BME280;6152;48.728;9.256;2023-08-07T08:42:18;97160.31;;;15.10;97.37
12178;BME280;6152;48.728;9.256;2023-08-07T08:44:59;97153.13;;;15.34;95.64
12178;BME280;6152;48.728;9.256;2023-08-07T08:47:27;97172.69;;;15.63;84.35
12178;BME280;6152;48.728;9.256;2023-08-07T08:50:12;97162.41;;;15.72;75.78
12178;BME280;6152;48.728;9.256;2023-08-07T08:52:43;97163.78;;;15.87;77.95
12178;BME280;6152;48.728;9.256;2023-08-07T08:55:11;97168.81;;;16.10;76.33
12178;BME280;6152;48.728;9.256;2023-08-07T08:57:39;97177.78;;;16.40;72.96
12178;BME280;6152;48.728;9.256;2023-08-07T09:00:07;97174.78;;;16.44;67.61
12178;BME280;6152;48.728;9.256;2023-08-07T09:02:45;97185.22;;;16.97;65.62
12178;BME280;6152;48.728;9.256;2023-08-07T09:05:11;97178.75;;;17.71;61.33
12178;BME280;6152;48.728;9.256;2023-08-07T09:07:38;97172.28;;;18.04;59.79
12178;BME280;6152;48.728;9.256;2023-08-07T09:10:04;97159.53;;;18.47;57.82
12178;BME280;6152;48.728;9.256;2023-08-07T09:12:33;97173.75;;;19.02;56.21
12178;BME280;6152;48.728;9.256;2023-08-07T09:15:02;97180.16;;;19.37;53.07
12178;BME280;6152;48.728;9.256;2023-08-07T09:17:33;97185.84;;;19.42;52.14
12178;BME280;6152;48.728;9.256;2023-08-07T09:20:01;97186.63;;;19.15;53.47
12178;BME280;6152;48.728;9.256;2023-08-07T09:22:27;97176.69;;;18.90;54.37
12178;BME280;6152;48.728;9.256;2023-08-07T09:24:53;97173.69;;;18.46;55.42
12178;BME280;6152;48.728;9.256;2023-08-07T09:27:21;97194.50;;;18.30;57.61
12178;BME280;6152;48.728;9.256;2023-08-07T09:29:47;97188.81;;;18.15;60.63
12178;BME280;6152;48.728;9.256;2023-08-07T09:32:14;97193.03;;;17.69;59.06
12178;BME280;6152;48.728;9.256;2023-08-07T09:34:43;97198.72;;;17.43;60.22
12178;BME280;6152;48.728;9.256;2023-08-07T09:37:09;97187.19;;;17.35;64.24
12178;BME280;6152;48.728;9.256;2023-08-07T09:39:36;97190.50;;;17.57;62.15
12178;BME280;6152;48.728;9.256;2023-08-07T09:42:15;97190.75;;;17.54;60.73
12178;BME280;6152;48.728;9.256;2023-08-07T09:44:42;97211.03;;;17.63;61.24
12178;BME280;6152;48.728;9.256;2023-08-07T09:47:16;97209.06;;;17.56;61.08
12178;BME280;6152;48.728;9.256;2023-08-07T09:49:43;97200.50;;;17.73;62.93
12178;BME280;6152;48.728;9.256;2023-08-07T09:52:12;97196.09;;;17.93;62.45
12178;BME280;6152;48.728;9.256;2023-08-07T09:54:44;97205.28;;;17.89;62.89
12178;BME280;6152;48.728;9.256;2023-08-07T09:57:10;97207.13;;;18.27;62.26
12178;BME280;6152;48.728;9.256;2023-08-07T09:59:36;97212.56;;;18.54;61.20
12178;BME280;6152;48.728;9.256;2023-08-07T10:02:03;97218.34;;;18.96;58.66
12178;BME280;6152;48.728;9.256;2023-08-07T10:04:30;97207.53;;;18.80;57.55
12178;BME280;6152;48.728;9.256;2023-08-07T10:06:57;97220.19;;;19.32;57.02
12178;BME280;6152;48.728;9.256;2023-08-07T10:09:23;97211.81;;;19.74;51.51
12178;BME280;6152;48.728;9.256;2023-08-07T10:11:50;97200.63;;;20.07;49.76
12178;BME280;6152;48.728;9.256;2023-08-07T10:14:17;97205.50;;;20.64;48.34
12178;BME280;6152;48.728;9.256;2023-08-07T10:16:43;97212.00;;;20.52;48.65
12178;BME280;6152;48.728;9.256;2023-08-07T10:19:11;97219.41;;;21.10;48.17
12178;BME280;6152;48.728;9.256;2023-08-07T10:21:39;97216.91;;;21.26;45.72
12178;BME280;6152;48.728;9.256;2023-08-07T10:24:07;97213.75;;;21.56;44.79
12178;BME280;6152;48.728;9.256;2023-08-07T10:26:35;97203.38;;;22.21;43.84
12178;BME280;6152;48.728;9.256;2023-08-07T10:29:05;97213.69;;;23.21;42.64
12178;BME280;6152;48.728;9.256;2023-08-07T10:31:34;97195.00;;;22.74;39.75
12178;BME280;6152;48.728;9.256;2023-08-07T10:34:02;97207.56;;;22.40;41.36
12178;BME280;6152;48.728;9.256;2023-08-07T10:36:35;97211.56;;;21.86;42.49
12178;BME280;6152;48.728;9.256;2023-08-07T10:39:10;97195.38;;;21.63;41.74
12178;BME280;6152;48.728;9.256;2023-08-07T10:41:46;97214.00;;;21.37;42.60
12178;BME280;6152;48.728;9.256;2023-08-07T10:44:20;97221.78;;;21.13;42.50
12178;BME280;6152;48.728;9.256;2023-08-07T10:46:48;97208.69;;;20.50;42.92
12178;BME280;6152;48.728;9.256;2023-08-07T10:52:03;97211.22;;;19.52;44.79
12178;BME280;6152;48.728;9.256;2023-08-07T10:54:29;97212.31;;;19.13;46.20
12178;BME280;6152;48.728;9.256;2023-08-07T10:56:55;97212.38;;;18.84;48.06
12178;BME280;6152;48.728;9.256;2023-08-07T10:59:22;97204.22;;;18.39;49.21
12178;BME280;6152;48.728;9.256;2023-08-07T11:01:53;97208.66;;;18.29;50.86
12178;BME280;6152;48.728;9.256;2023-08-07T11:04:21;97209.31;;;18.22;50.15
12178;BME280;6152;48.728;9.256;2023-08-07T11:06:50;97210.53;;;17.89;52.56
12178;BME280;6152;48.728;9.256;2023-08-07T11:09:17;97211.97;;;17.62;54.94
12178;BME280;6152;48.728;9.256;2023-08-07T11:11:45;97210.09;;;17.84;56.95
12178;BME280;6152;48.728;9.256;2023-08-07T11:14:17;97220.81;;;18.01;55.16
12178;BME280;6152;48.728;9.256;2023-08-07T11:16:45;97226.38;;;18.08;56.73
12178;BME280;6152;48.728;9.256;2023-08-07T11:19:16;97227.47;;;18.05;58.94
12178;BME280;6152;48.728;9.256;2023-08-07T11:21:42;97225.84;;;18.24;57.87
12178;BME280;6152;48.728;9.256;2023-08-07T11:24:11;97222.78;;;18.28;54.12
12178;BME280;6152;48.728;9.256;2023-08-07T11:26:38;97230.50;;;17.91;55.07
12178;BME280;6152;48.728;9.256;2023-08-07T11:29:04;97216.56;;;17.60;56.49
12178;BME280;6152;48.728;9.256;2023-08-07T11:31:30;97230.22;;;17.24;58.79
12178;BME280;6152;48.728;9.256;2023-08-07T11:33:57;97226.66;;;17.04;61.44
12178;BME280;6152;48.728;9.256;2023-08-07T11:36:24;97222.28;;;16.94;65.57
12178;BME280;6152;48.728;9.256;2023-08-07T11:38:50;97225.56;;;16.86;68.30
12178;BME280;6152;48.728;9.256;2023-08-07T11:41:18;97227.28;;;16.97;71.10
12178;BME280;6152;48.728;9.256;2023-08-07T11:43:45;97229.22;;;16.95;74.65
12178;BME280;6152;48.728;9.256;2023-08-07T11:46:13;97232.53;;;16.55;74.96
12178;BME280;6152;48.728;9.256;2023-08-07T11:48:41;97233.66;;;16.42;76.69
12178;BME280;6152;48.728;9.256;2023-08-07T11:51:08;97228.84;;;16.15;78.73
12178;BME280;6152;48.728;9.256;2023-08-07T11:53:36;97226.59;;;16.10;81.83
12178;BME280;6152;48.728;9.256;2023-08-07T11:56:05;97233.69;;;15.99;85.51
12178;BME280;6152;48.728;9.256;2023-08-07T11:58:43;97234.38;;;16.01;83.49
12178;BME280;6152;48.728;9.256;2023-08-07T12:01:12;97242.75;;;15.95;83.36
12178;BME280;6152;48.728;9.256;2023-08-07T12:03:49;97237.16;;;15.88;84.03
12178;BME280;6152;48.728;9.256;2023-08-07T12:06:15;97242.06;;;15.82;86.95
12178;BME280;6152;48.728;9.256;2023-08-07T12:08:42;97249.22;;;15.80;86.54
12178;BME280;6152;48.728;9.256;2023-08-07T12:11:12;97247.94;;;15.63;87.07
12178;BME280;6152;48.728;9.256;2023-08-07T12:13:40;97245.31;;;15.52;89.45
12178;BME280;6152;48.728;9.256;2023-08-07T12:16:07;97248.97;;;15.38;91.23
12178;BME280;6152;48.728;9.256;2023-08-07T12:18:34;97253.16;;;15.41;92.77
12178;BME280;6152;48.728;9.256;2023-08-07T12:21:03;97255.19;;;15.48;93.24
12178;BME280;6152;48.728;9.256;2023-08-07T12:23:33;97261.63;;;15.55;92.12
12178;BME280;6152;48.728;9.256;2023-08-07T12:26:00;97267.38;;;15.60;95.04
12178;BME280;6152;48.728;9.256;2023-08-07T12:28:26;97280.50;;;15.72;97.05
12178;BME280;6152;48.728;9.256;2023-08-07T12:30:53;97274.75;;;15.66;100.00
12178;BME280;6152;48.728;9.256;2023-08-07T12:33:19;97275.94;;;15.74;100.00
12178;BME280;6152;48.728;9.256;2023-08-07T12:35:46;97270.25;;;15.69;100.00
12178;BME280;6152;48.728;9.256;2023-08-07T12:38:12;97265.94;;;15.68;100.00
12178;BME280;6152;48.728;9.256;2023-08-07T12:40:41;97269.66;;;15.65;100.00
12178;BME280;6152;48.728;9.256;2023-08-07T12:43:08;97263.66;;;15.74;100.00
12178;BME280;6152;48.728;9.256;2023-08-07T12:45:34;97262.09;;;15.94;100.00
12178;BME280;6152;48.728;9.256;2023-08-07T12:48:00;97259.44;;;16.05;100.00
12178;BME280;6152;48.728;9.256;2023-08-07T12:50:27;97258.16;;;16.31;100.00
12178;BME280;6152;48.728;9.256;2023-08-07T12:52:53;97257.88;;;16.56;100.00
12178;BME280;6152;48.728;9.256;2023-08-07T12:55:20;97259.97;;;16.62;97.83
12178;BME280;6152;48.728;9.256;2023-08-07T12:57:46;97268.47;;;16.87;95.81
12178;BME280;6152;48.728;9.256;2023-08-07T13:00:13;97255.94;;;17.00;91.62
12178;BME280;6152;48.728;9.256;2023-08-07T13:02:43;97269.81;;;17.02;90.62
12178;BME280;6152;48.728;9.256;2023-08-07T13:05:10;97260.88;;;17.14;91.19
12178;BME280;6152;48.728;9.256;2023-08-07T13:07:36;97260.16;;;17.33;90.72
12178;BME280;6152;48.728;9.256;2023-08-07T13:10:05;97265.16;;;17.36;89.47
12178;BME280;6152;48.728;9.256;2023-08-07T13:12:36;97256.63;;;17.43;85.48
12178;BME280;6152;48.728;9.256;2023-08-07T13:15:04;97257.75;;;17.50;84.63